createdAt,value
2024-01-11T00:01:01.522Z,8.48
2024-01-11T00:03:40.932Z,8.70
2024-01-11T00:06:20.505Z,8.64
2024-01-11T00:08:59.943Z,8.17
2024-01-11T00:11:39.375Z,8.58
2024-01-11T00:14:23.885Z,8.85
2024-01-11T00:17:03.269Z,8.54
2024-01-11T00:19:42.619Z,8.59
2024-01-11T00:22:21.962Z,8.65
2024-01-11T00:25:01.395Z,8.56
2024-01-11T00:27:40.872Z,8.08
2024-01-11T00:30:25.797Z,8.77
2024-01-11T00:33:05.311Z,8.35
2024-01-11T00:35:44.882Z,8.33
2024-01-11T00:38:24.457Z,8.18
2024-01-11T00:41:03.951Z,8.06
2024-01-11T00:43:43.738Z,8.56
2024-01-11T00:46:28.171Z,8.42
2024-01-11T00:49:07.682Z,8.25
2024-01-11T00:51:47.146Z,8.52
2024-01-11T00:54:27.123Z,8.17
2024-01-11T00:57:06.925Z,8.18
2024-01-11T00:59:46.512Z,8.47
2024-01-11T01:02:31.096Z,8.44
2024-01-11T01:05:11.669Z,8.64
2024-01-11T01:07:51.327Z,8.09
2024-01-11T01:10:30.681Z,8.54
2024-01-11T01:13:10.281Z,8.58
2024-01-11T01:15:49.707Z,8.75
2024-01-11T01:18:34.300Z,8.73
2024-01-11T01:21:14.043Z,8.49
2024-01-11T01:23:53.396Z,8.44
2024-01-11T01:26:32.762Z,8.57
2024-01-11T01:29:12.304Z,8.75
2024-01-11T01:31:51.714Z,8.92
2024-01-11T01:34:36.223Z,8.30
2024-01-11T01:37:15.612Z,8.40
2024-01-11T01:39:54.976Z,8.57
2024-01-11T01:42:34.439Z,8.88
2024-01-11T01:45:15.494Z,8.88
2024-01-11T01:47:54.997Z,8.97
2024-01-11T01:50:40.567Z,8.80
2024-01-11T01:53:20.146Z,8.94
2024-01-11T01:56:01.630Z,9.89
2024-01-11T01:58:42.299Z,9.60
2024-01-11T02:01:22.444Z,9.96
2024-01-11T02:04:03.600Z,9.48
2024-01-11T02:06:50.111Z,10.11
2024-01-11T02:09:30.599Z,10.34
2024-01-11T02:12:13.278Z,10.16
2024-01-11T02:14:52.983Z,9.86
2024-01-11T02:17:32.608Z,10.27
2024-01-11T02:20:13.092Z,10.36
2024-01-11T02:23:05.195Z,10.20
2024-01-11T02:25:49.668Z,10.17
2024-01-11T02:28:29.058Z,10.82
2024-01-11T02:31:08.487Z,10.24
2024-01-11T02:33:48.373Z,10.56
2024-01-11T02:36:29.307Z,9.89
2024-01-11T02:39:08.673Z,9.91
2024-01-11T02:41:53.617Z,9.73
2024-01-11T02:44:33.318Z,9.58
2024-01-11T02:47:12.803Z,9.54
2024-01-11T02:49:52.187Z,9.24
2024-01-11T02:52:32.044Z,9.47
2024-01-11T02:55:12.003Z,10.21
2024-01-11T02:57:56.554Z,10.25
2024-01-11T03:00:35.917Z,9.90
2024-01-11T03:03:15.404Z,10.14
2024-01-11T03:05:55.313Z,9.88
2024-01-11T03:08:35.108Z,9.84
2024-01-11T03:11:14.714Z,10.14
2024-01-11T03:13:59.181Z,9.86
2024-01-11T03:16:38.652Z,9.78
2024-01-11T03:19:18.084Z,10.09
2024-01-11T03:21:57.570Z,9.89
2024-01-11T03:24:37.002Z,9.89
2024-01-11T03:27:16.384Z,10.12
2024-01-11T03:30:00.997Z,10.32
2024-01-11T03:32:41.499Z,9.97
2024-01-11T03:35:21.732Z,10.18
2024-01-11T03:38:01.210Z,10.32
2024-01-11T03:40:40.735Z,10.48
2024-01-11T03:43:20.189Z,10.29
2024-01-11T03:46:04.798Z,9.68
2024-01-11T03:48:44.236Z,9.71
2024-01-11T03:51:23.686Z,10.03
2024-01-11T03:54:03.082Z,10.24
2024-01-11T03:56:46.943Z,9.83
2024-01-11T03:59:29.207Z,10.22
2024-01-11T04:02:13.714Z,9.85
2024-01-11T04:04:53.168Z,10.36
2024-01-11T04:07:32.849Z,10.38
2024-01-11T04:10:13.287Z,10.08
2024-01-11T04:12:52.851Z,10.12
2024-01-11T04:15:32.235Z,10.05
2024-01-11T04:18:17.093Z,9.87
2024-01-11T04:20:56.490Z,9.81
2024-01-11T04:23:35.979Z,10.13
2024-01-11T04:26:15.448Z,10.02
2024-01-11T04:28:57.027Z,10.02
2024-01-11T04:31:38.035Z,10.19
2024-01-11T04:34:22.601Z,10.05
2024-01-11T04:37:01.992Z,9.85
2024-01-11T04:39:41.350Z,9.39
2024-01-11T04:42:20.777Z,9.92
2024-01-11T04:45:00.170Z,10.23
2024-01-11T04:47:40.340Z,10.16
2024-01-11T04:50:25.041Z,9.99
2024-01-11T04:53:04.480Z,9.86
2024-01-11T04:55:44.208Z,9.45
2024-01-11T04:58:23.601Z,9.37
2024-01-11T05:01:03.009Z,9.54
2024-01-11T05:03:42.480Z,9.56
2024-01-11T05:06:31.847Z,9.82
2024-01-11T05:09:11.635Z,9.68
2024-01-11T05:11:51.013Z,10.11
2024-01-11T05:14:30.486Z,9.60
2024-01-11T05:17:10.295Z,9.48
2024-01-11T05:19:49.694Z,10.19
2024-01-11T05:22:34.155Z,10.01
2024-01-11T05:25:14.210Z,9.78
2024-01-11T05:27:53.581Z,9.66
2024-01-11T05:30:33.038Z,9.92
2024-01-11T05:33:12.813Z,9.99
2024-01-11T05:35:52.728Z,10.06
2024-01-11T05:38:37.397Z,9.90
2024-01-11T05:41:16.870Z,10.11
2024-01-11T05:43:56.988Z,9.86
2024-01-11T05:46:36.411Z,10.12
2024-01-11T05:49:16.053Z,10.25
2024-01-11T05:51:55.474Z,10.03
2024-01-11T05:54:39.957Z,9.75
2024-01-11T05:57:19.331Z,10.03
2024-01-11T05:59:58.743Z,10.16
2024-01-11T06:02:38.381Z,9.63
2024-01-11T06:05:18.179Z,10.21
2024-01-11T06:07:57.693Z,10.26
2024-01-11T06:10:42.301Z,10.12
2024-01-11T06:13:21.644Z,10.21
2024-01-11T06:16:01.011Z,10.07
2024-01-11T06:18:40.508Z,10.61
2024-01-11T06:21:19.995Z,10.87
2024-01-11T06:24:00.177Z,11.72
2024-01-11T06:26:44.794Z,15.02
2024-01-11T06:29:24.277Z,13.69
2024-01-11T06:32:03.763Z,12.87
2024-01-11T06:34:48.031Z,11.78
2024-01-11T06:37:27.545Z,10.56
2024-01-11T06:40:07.211Z,10.79
2024-01-11T06:42:51.809Z,10.63
2024-01-11T06:45:31.188Z,10.52
2024-01-11T06:48:11.346Z,9.92
2024-01-11T06:50:50.997Z,10.58
2024-01-11T06:53:30.539Z,10.24
2024-01-11T06:56:09.927Z,10.03
2024-01-11T06:58:55.095Z,10.43
2024-01-11T07:01:34.607Z,10.92
2024-01-11T07:04:14.115Z,11.30
2024-01-11T07:06:53.586Z,13.01
2024-01-11T07:09:33.081Z,12.05
2024-01-11T07:12:14.461Z,12.68
2024-01-11T07:14:58.941Z,11.57
2024-01-11T07:17:38.416Z,12.00
2024-01-11T07:20:21.072Z,11.01
2024-01-11T07:23:00.690Z,10.60
2024-01-11T07:25:40.114Z,10.38
2024-01-11T07:28:19.608Z,10.64
2024-01-11T07:31:04.207Z,10.91
2024-01-11T07:33:43.809Z,10.83
2024-01-11T07:36:23.945Z,10.71
2024-01-11T07:39:03.520Z,11.05
2024-01-11T07:41:43.246Z,10.74
2024-01-11T07:44:23.201Z,10.80
2024-01-11T07:47:07.973Z,10.64
2024-01-11T07:49:47.439Z,11.51
2024-01-11T07:52:27.175Z,10.97
2024-01-11T07:55:09.713Z,11.16
2024-01-11T07:57:49.828Z,11.19
2024-01-11T08:00:30.280Z,11.11
2024-01-11T08:03:14.939Z,10.83
2024-01-11T08:05:54.494Z,10.98
2024-01-11T08:08:34.186Z,10.97
2024-01-11T08:11:14.708Z,10.82
2024-01-11T08:13:57.089Z,10.89
2024-01-11T08:16:37.124Z,10.96
2024-01-11T08:19:21.733Z,10.98
2024-01-11T08:22:01.653Z,11.06
2024-01-11T08:24:41.381Z,11.13
2024-01-11T08:27:20.764Z,10.90
2024-01-11T08:30:00.099Z,10.31
2024-01-11T08:32:41.648Z,10.08
2024-01-11T08:35:26.301Z,9.96
2024-01-11T08:38:06.151Z,10.05
2024-01-11T08:40:46.894Z,10.05
2024-01-11T08:43:26.424Z,10.59
2024-01-11T08:46:06.167Z,10.80
2024-01-11T08:48:45.631Z,10.96
2024-01-11T08:51:30.664Z,11.34
2024-01-11T08:54:11.748Z,11.29
2024-01-11T08:56:51.313Z,11.29
2024-01-11T08:59:31.097Z,11.65
2024-01-11T09:02:15.504Z,11.67
2024-01-11T09:04:58.244Z,11.44
2024-01-11T09:07:42.825Z,11.38
2024-01-11T09:10:22.285Z,11.19
2024-01-11T09:13:02.179Z,11.41
2024-01-11T09:15:41.718Z,12.17
2024-01-11T09:18:21.343Z,12.85
2024-01-11T09:21:00.870Z,14.31
2024-01-11T09:23:45.480Z,13.45
2024-01-11T09:26:24.941Z,12.79
2024-01-11T09:29:04.726Z,12.66
2024-01-11T09:31:44.669Z,13.22
2024-01-11T09:34:24.498Z,12.54
2024-01-11T09:37:05.911Z,12.45
2024-01-11T09:39:50.723Z,12.73
2024-01-11T09:42:30.375Z,12.95
2024-01-11T09:45:10.901Z,12.78
2024-01-11T09:47:52.728Z,13.21
2024-01-11T09:50:33.570Z,13.06
2024-01-11T09:53:15.659Z,12.00
2024-01-11T09:56:02.302Z,11.62
2024-01-11T09:58:44.083Z,11.38
2024-01-11T10:01:24.488Z,11.65
2024-01-11T10:04:04.332Z,13.17
2024-01-11T10:06:47.462Z,13.15
2024-01-11T10:09:27.001Z,13.13
2024-01-11T10:12:12.196Z,13.57
2024-01-11T10:14:51.683Z,12.54
2024-01-11T10:17:31.282Z,11.78
2024-01-11T10:20:13.143Z,10.85
2024-01-11T10:22:55.394Z,10.49
2024-01-11T10:25:35.051Z,10.28
2024-01-11T10:28:21.852Z,10.58
2024-01-11T10:31:01.973Z,9.83
2024-01-11T10:33:43.256Z,10.13
2024-01-11T10:36:22.777Z,8.71
2024-01-11T10:39:07.075Z,9.58
2024-01-11T10:41:49.129Z,10.01
2024-01-11T10:47:30.338Z,10.24
2024-01-11T10:50:12.872Z,10.46
2024-01-11T10:53:08.965Z,10.06
2024-01-11T10:55:50.832Z,8.90
2024-01-11T10:58:32.679Z,10.76
2024-01-11T11:01:15.791Z,9.97
2024-01-11T11:04:03.703Z,9.90
2024-01-11T11:06:45.237Z,8.46
2024-01-11T11:09:26.356Z,8.04
2024-01-11T11:12:07.144Z,8.13
2024-01-11T11:14:47.323Z,8.23
2024-01-11T11:17:27.418Z,7.54
2024-01-11T11:20:14.699Z,8.13
2024-01-11T11:23:12.242Z,7.63
2024-01-11T11:25:54.382Z,7.67
2024-01-11T11:28:36.947Z,7.38
2024-01-11T11:31:16.267Z,7.46
2024-01-11T11:33:59.730Z,7.08
2024-01-11T11:36:44.374Z,7.02
2024-01-11T11:39:24.268Z,6.31
2024-01-11T11:42:03.884Z,6.59
2024-01-11T11:44:44.088Z,6.98
2024-01-11T11:47:30.782Z,7.33
2024-01-11T11:50:16.251Z,6.66
2024-01-11T11:53:03.508Z,6.64
2024-01-11T11:55:43.773Z,6.80
2024-01-11T11:58:23.065Z,7.38
2024-01-11T12:01:04.184Z,6.93
2024-01-11T12:03:45.102Z,7.17
2024-01-11T12:06:26.991Z,6.81
2024-01-11T12:09:11.510Z,6.65
2024-01-11T12:11:58.466Z,6.65
2024-01-11T12:14:46.454Z,7.10
2024-01-11T12:17:26.137Z,6.88
2024-01-11T12:20:05.923Z,6.71
2024-01-11T12:22:45.213Z,6.74
2024-01-11T12:25:29.856Z,6.92
2024-01-11T12:28:09.377Z,6.66
2024-01-11T12:30:49.015Z,6.49
2024-01-11T12:33:29.691Z,6.44
2024-01-11T12:36:10.148Z,6.66
2024-01-11T12:38:55.667Z,6.54
2024-01-11T12:41:41.110Z,6.28
2024-01-11T12:44:20.511Z,6.51
2024-01-11T12:47:00.566Z,6.07
2024-01-11T12:49:39.979Z,5.57
2024-01-11T12:52:26.443Z,6.05
2024-01-11T12:55:06.817Z,6.37
2024-01-11T12:57:51.281Z,5.40
2024-01-11T13:00:31.429Z,5.97
2024-01-11T13:03:11.133Z,5.90
2024-01-11T13:05:50.838Z,5.56
2024-01-11T13:08:31.334Z,5.64
2024-01-11T13:11:11.663Z,5.95
2024-01-11T13:13:56.034Z,5.72
2024-01-11T13:16:35.354Z,5.68
2024-01-11T13:19:23.792Z,6.13
2024-01-11T13:22:06.490Z,5.94
2024-01-11T13:24:46.037Z,5.81
2024-01-11T13:27:25.329Z,6.06
2024-01-11T13:30:10.797Z,6.02
2024-01-11T13:32:50.349Z,5.60
2024-01-11T13:35:30.147Z,5.44
2024-01-11T13:38:09.995Z,6.31
2024-01-11T13:40:49.571Z,6.03
2024-01-11T13:43:28.872Z,5.85
2024-01-11T13:46:14.288Z,6.04
2024-01-11T13:48:53.991Z,5.88
2024-01-11T13:51:42.838Z,6.12
2024-01-11T13:54:25.923Z,5.72
2024-01-11T13:57:05.319Z,5.74
2024-01-11T13:59:44.689Z,5.67
2024-01-11T14:02:29.104Z,5.79
2024-01-11T14:05:09.557Z,5.85
2024-01-11T14:07:50.201Z,5.97
2024-01-11T14:10:30.075Z,5.56
2024-01-11T14:13:11.853Z,5.37
2024-01-11T14:15:53.061Z,5.87
2024-01-11T14:18:37.587Z,5.16
2024-01-11T14:21:17.380Z,5.57
2024-01-11T14:23:56.693Z,5.49
2024-01-11T14:26:36.528Z,5.19
2024-01-11T14:29:15.903Z,5.67
2024-01-11T14:31:55.535Z,5.75
2024-01-11T14:34:41.252Z,5.68
2024-01-11T14:37:21.142Z,6.05
2024-01-11T14:40:00.552Z,6.01
2024-01-11T14:42:40.174Z,6.07
2024-01-11T14:45:19.594Z,6.07
2024-01-11T14:48:00.713Z,6.05
2024-01-11T14:50:45.606Z,6.19
2024-01-11T14:53:25.001Z,6.52
2024-01-11T14:56:04.833Z,6.34
2024-01-11T14:58:44.147Z,6.41
2024-01-11T15:01:23.471Z,6.64
2024-01-11T15:04:02.867Z,6.69
2024-01-11T15:06:47.413Z,6.93
2024-01-11T15:09:28.295Z,6.47
2024-01-11T15:12:07.672Z,6.83
2024-01-11T15:14:47.114Z,7.36
2024-01-11T15:17:26.615Z,7.34
2024-01-11T15:20:07.039Z,7.18
2024-01-11T15:22:51.445Z,7.15
2024-01-11T15:25:31.146Z,7.20
2024-01-11T15:28:10.493Z,7.34
2024-01-11T15:30:50.970Z,7.24
2024-01-11T15:33:30.397Z,7.55
2024-01-11T15:36:09.814Z,7.36
2024-01-11T15:38:58.406Z,7.90
2024-01-11T15:41:44.031Z,7.05
2024-01-11T15:44:24.406Z,7.32
2024-01-11T15:47:04.148Z,7.72
2024-01-11T15:49:43.407Z,7.26
2024-01-11T15:52:22.796Z,7.27
2024-01-11T15:55:07.713Z,7.64
2024-01-11T15:57:47.090Z,7.56
2024-01-11T16:00:26.602Z,7.92
2024-01-11T16:03:09.108Z,8.06
2024-01-11T16:05:48.533Z,7.56
2024-01-11T16:08:27.891Z,7.72
2024-01-11T16:11:12.334Z,7.75
2024-01-11T16:13:52.279Z,8.40
2024-01-11T16:16:31.630Z,8.27
2024-01-11T16:19:12.385Z,8.25
2024-01-11T16:21:51.846Z,8.69
2024-01-11T16:24:31.145Z,8.72
2024-01-11T16:27:16.007Z,8.82
2024-01-11T16:29:55.342Z,9.65
2024-01-11T16:32:35.140Z,9.49
2024-01-11T16:35:15.392Z,9.71
2024-01-11T16:37:54.763Z,9.97
2024-01-11T16:40:34.109Z,10.84
2024-01-11T16:43:18.507Z,11.97
2024-01-11T16:45:57.984Z,10.75
2024-01-11T16:48:37.319Z,10.81
2024-01-11T16:51:16.664Z,10.57
2024-01-11T16:53:55.952Z,11.25
2024-01-11T16:56:36.223Z,11.20
2024-01-11T16:59:20.674Z,11.96
2024-01-11T17:02:00.050Z,12.63
2024-01-11T17:04:39.353Z,12.54
2024-01-11T17:07:18.666Z,12.92
2024-01-11T17:09:58.012Z,12.93
2024-01-11T17:12:38.399Z,14.40
2024-01-11T17:15:24.528Z,18.54
2024-01-11T17:18:04.089Z,12.07
2024-01-11T17:20:43.618Z,10.97
2024-01-11T17:23:23.010Z,10.53
2024-01-11T17:26:05.788Z,10.40
2024-01-11T17:28:45.447Z,10.73
2024-01-11T17:31:29.797Z,10.36
2024-01-11T17:34:09.230Z,10.20
2024-01-11T17:36:48.554Z,10.29
2024-01-11T17:39:28.146Z,10.74
2024-01-11T17:42:07.500Z,11.31
2024-01-11T17:44:46.845Z,11.27
2024-01-11T17:47:31.360Z,11.40
2024-01-11T17:50:11.289Z,11.37
2024-01-11T17:52:51.945Z,10.79
2024-01-11T17:55:31.747Z,10.29
2024-01-11T17:58:11.445Z,9.42
2024-01-11T18:00:50.886Z,9.94
2024-01-11T18:03:35.273Z,9.83
2024-01-11T18:06:17.624Z,10.35
2024-01-11T18:08:57.069Z,10.54
2024-01-11T18:11:36.493Z,11.62
2024-01-11T18:14:15.927Z,10.32
2024-01-11T18:16:55.311Z,10.24
2024-01-11T18:19:39.835Z,10.83
2024-01-11T18:22:19.373Z,10.80
2024-01-11T18:24:58.724Z,10.13
2024-01-11T18:27:38.870Z,11.05
2024-01-11T18:30:19.781Z,10.83
2024-01-11T18:32:59.297Z,11.02
2024-01-11T18:35:43.803Z,10.98
2024-01-11T18:38:24.936Z,11.11
2024-01-11T18:41:04.282Z,11.02
2024-01-11T18:43:43.636Z,11.67
2024-01-11T18:46:23.353Z,11.62
2024-01-11T18:49:05.417Z,11.79
2024-01-11T18:51:52.310Z,11.86
2024-01-11T18:54:31.597Z,12.08
2024-01-11T18:57:12.668Z,11.58
2024-01-11T18:59:52.171Z,11.59
2024-01-11T19:02:31.605Z,13.92
2024-01-11T19:05:12.651Z,13.63
2024-01-11T19:07:58.536Z,11.98
2024-01-11T19:10:37.911Z,11.86
2024-01-11T19:13:18.036Z,11.80
2024-01-11T19:15:57.366Z,12.02
2024-01-11T19:18:37.113Z,12.53
2024-01-11T19:21:16.615Z,12.70
2024-01-11T19:24:01.125Z,12.55
2024-01-11T19:26:40.608Z,12.54
2024-01-11T19:29:20.029Z,12.73
2024-01-11T19:31:59.327Z,13.22
2024-01-11T19:34:39.924Z,12.93
2024-01-11T19:37:21.173Z,12.97
2024-01-11T19:40:07.227Z,12.39
2024-01-11T19:42:46.561Z,12.22
2024-01-11T19:45:25.898Z,12.17
2024-01-11T19:48:05.352Z,15.51
2024-01-11T19:50:45.050Z,15.32
2024-01-11T19:53:24.424Z,15.18
2024-01-11T19:56:08.836Z,14.37
2024-01-11T19:58:48.164Z,13.68
2024-01-11T20:01:27.519Z,12.54
2024-01-11T20:04:07.056Z,12.50
2024-01-11T20:06:48.081Z,12.63
2024-01-11T20:09:27.380Z,12.27
2024-01-11T20:12:12.326Z,12.46
2024-01-11T20:14:51.774Z,12.59
2024-01-11T20:17:31.156Z,13.25
2024-01-11T20:20:10.908Z,13.51
2024-01-11T20:22:50.290Z,13.11
2024-01-11T20:25:29.556Z,13.83
2024-01-11T20:28:14.433Z,13.51
2024-01-11T20:30:53.856Z,13.00
2024-01-11T20:33:33.389Z,12.74
2024-01-11T20:36:13.914Z,13.38
2024-01-11T20:38:53.239Z,13.12
2024-01-11T20:41:32.693Z,13.83
2024-01-11T20:44:17.822Z,13.65
2024-01-11T20:46:59.774Z,13.37
2024-01-11T20:49:40.332Z,13.90
2024-01-11T20:52:19.666Z,13.32
2024-01-11T20:54:58.984Z,13.61
2024-01-11T20:57:39.321Z,13.36
2024-01-11T21:00:26.268Z,13.64
2024-01-11T21:03:05.674Z,12.86
2024-01-11T21:05:47.065Z,13.25
2024-01-11T21:08:27.142Z,13.34
2024-01-11T21:11:06.489Z,13.53
2024-01-11T21:13:45.791Z,13.62
2024-01-11T21:16:30.305Z,13.87
2024-01-11T21:19:10.463Z,13.46
2024-01-11T21:21:52.781Z,13.90
2024-01-11T21:24:32.146Z,14.17
2024-01-11T21:27:11.805Z,14.05
2024-01-11T21:29:51.263Z,13.55
2024-01-11T21:32:35.816Z,13.75
2024-01-11T21:35:20.138Z,13.70
2024-01-11T21:37:59.918Z,13.97
2024-01-11T21:40:41.688Z,13.72
2024-01-11T21:43:20.983Z,14.14
2024-01-11T21:46:00.279Z,14.31
2024-01-11T21:48:44.965Z,14.03
2024-01-11T21:51:25.369Z,13.87
2024-01-11T21:54:04.735Z,14.83
2024-01-11T21:56:44.167Z,15.00
2024-01-11T21:59:23.527Z,13.64
2024-01-11T22:02:02.845Z,13.76
2024-01-11T22:04:47.591Z,13.87
2024-01-11T22:07:27.021Z,14.30
2024-01-11T22:10:06.292Z,13.85
2024-01-11T22:12:45.664Z,13.64
2024-01-11T22:15:25.179Z,13.85
2024-01-11T22:18:04.719Z,14.14
2024-01-11T22:20:49.420Z,14.40
2024-01-11T22:23:28.896Z,14.04
2024-01-11T22:26:08.712Z,14.13
2024-01-11T22:28:48.093Z,13.64
2024-01-11T22:31:28.197Z,14.32
2024-01-11T22:34:07.662Z,14.00
2024-01-11T22:36:54.160Z,14.03
2024-01-11T22:39:33.572Z,14.35
2024-01-11T22:42:13.005Z,14.26
2024-01-11T22:44:52.447Z,13.88
2024-01-11T22:47:32.392Z,14.01
2024-01-11T22:50:12.730Z,13.35
2024-01-11T22:52:57.323Z,12.83
2024-01-11T22:55:36.619Z,13.38
2024-01-11T22:58:16.114Z,13.61
2024-01-11T23:00:57.540Z,13.61
2024-01-11T23:03:36.854Z,13.66
2024-01-11T23:06:16.456Z,13.69
2024-01-11T23:09:01.140Z,14.09
2024-01-11T23:11:40.503Z,13.61
2024-01-11T23:14:20.704Z,12.85
2024-01-11T23:17:00.156Z,13.77
2024-01-11T23:19:39.533Z,13.96
2024-01-11T23:22:18.935Z,14.14
2024-01-11T23:25:03.324Z,13.44
2024-01-11T23:27:42.686Z,13.63
2024-01-11T23:30:22.869Z,13.07
2024-01-11T23:33:02.329Z,12.89
2024-01-11T23:35:41.762Z,13.31
2024-01-11T23:38:21.120Z,13.16
2024-01-11T23:41:05.676Z,12.88
2024-01-11T23:43:45.008Z,13.42
2024-01-11T23:46:24.331Z,12.82
2024-01-11T23:49:03.831Z,12.88
2024-01-11T23:51:43.383Z,12.69
2024-01-11T23:54:22.806Z,13.09
2024-01-11T23:57:07.182Z,12.86
2024-01-11T23:59:49.509Z,12.96
